Terminal Aerodrome Forecast
Issued by NWS Bismarck, ND

Home | Current Version | Previous Version | Graphics & Text | Print | Product List | Glossary On
Versions: 1 2 3 4 5 6 7 8 9 10 11 12 13 14 15 16 17 18 19 20 21 22 23 24
000
FTUS43 KBIS 211130
TAFBIS
TAF
KBIS 211130Z 2112/2212 12005KT P6SM SCT150
     FM211700 18009KT P6SM FEW070 SCT200
     FM211900 21009KT P6SM VCTS FEW080CB SCT200
     FM212100 30010KT P6SM VCTS FEW080CB SCT200
     FM212300 32013KT P6SM FEW080 FEW200
     FM220200 32009KT P6SM SKC=

USA.gov is the U.S. government's official web portal to all federal, state and local government web resources and services.